Huvudsida
METAR-TAF:

METAR-TAF

Flygplatser :

Kemi-Torneå flygplats

Kemi, Finland

latitud: 65-47N, longitud: 024-35E, höjd: 15 m

Aktuellt väderrapport

Denna rapport gjordes för 25 minuter sedan, klockan 04:20 UTC
Vind 13 kt från nord
Temperatur -2°C
Fuktighet 86%
Tryck 985 hPa
Sikt 10 km eller mer
Få moln på en höjd av 1000 ft
Mulet på en höjd av 5000 ft
lätta snöbyar

METAR: EFKE 190420Z AUTO 01013KT 9999 -SHSN FEW010 OVC050 M02/M04 Q0985

Tid: 06:45 (04:45 UTC)

Väderprognos

Denna rapport gjordes för 11 timmar och 16 minuter sedan, klockan 17:29 UTC
Prognos gäller från 18 kl. 18 UTC till 18 kl. 21 UTC
Vind 5 kt från ost
Sikt 10 km eller mer
Brutna moln på en höjd av 2500 ft

TAF: EFKE 181729Z 1818/1821 10005KT 9999 BKN025

Aktuella väderrapporter och prognoser från 4000 flygplatser (METAR- och TAF-rapporter).

De tillgängliga stationerna syns som gula och röda prickar på kartan.

För musen över prickarna för att se namnen på stationerna.

Klicka sedan för att få väderrapporter och prognoser.

För att ändra kartan: Klicka på de gröna knapparna med ett svart kors på för att zooma in; den gröna knappen med ett streck på för att zooma ut; eller på de gröna pilarna för angränsande kartor.


METAR-TAF: